Time;durP1;ratioP1;P1;durP2;ratioP2;P2;SDS_P1;SDS_P2;PMS_P1;PMS_P2;Temp;Humidity;BMP_temperature;BMP_pressure;BME280_temperature;BME280_humidity;BME280_pressure;Samples;Min_cycle;Max_cycle;Signal;HPM_P1;HPM_P2
2022/11/02 00:01:43;;;;;;;7.90;4.30;;;;;;;7.48;100.00;96863.94;4980111;28;22509;-76
2022/11/02 00:04:09;;;;;;;9.50;5.07;;;;;;;7.50;100.00;96869.84;4989356;28;20061;-75
2022/11/02 00:06:34;;;;;;;9.27;5.10;;;;;;;7.51;100.00;96874.13;4981875;28;20710;-76
2022/11/02 00:09:00;;;;;;;9.83;5.53;;;;;;;7.49;100.00;96876.06;4987907;28;21599;-76
2022/11/02 00:11:26;;;;;;;9.47;4.57;;;;;;;7.48;100.00;96877.00;4985833;28;20068;-76
2022/11/02 00:13:51;;;;;;;10.37;4.50;;;;;;;7.46;100.00;96877.13;4990388;28;20170;-76
2022/11/02 00:16:19;;;;;;;9.50;4.97;;;;;;;7.43;100.00;96877.38;4990505;28;20709;-76
2022/11/02 00:18:47;;;;;;;11.87;6.87;;;;;;;7.39;100.00;96881.19;4981186;28;20124;-76
2022/11/02 00:21:16;;;;;;;13.33;6.90;;;;;;;7.36;100.00;96876.19;4969306;28;20025;-76
2022/11/02 00:23:42;;;;;;;10.83;6.40;;;;;;;7.28;100.00;96878.63;5003229;28;20071;-76
2022/11/02 00:26:08;;;;;;;10.67;6.87;;;;;;;7.35;100.00;96876.34;4988868;28;20033;-76
2022/11/02 00:28:34;;;;;;;8.07;5.07;;;;;;;7.32;100.00;96885.25;4995601;28;20148;-76
2022/11/02 00:31:00;;;;;;;11.20;5.10;;;;;;;7.27;100.00;96885.59;4997854;28;20173;-76
2022/11/02 00:33:26;;;;;;;9.17;5.37;;;;;;;7.27;100.00;96879.56;4995970;28;20834;-76
2022/11/02 00:35:53;;;;;;;7.83;4.73;;;;;;;7.23;100.00;96883.38;4992271;28;20164;-76
2022/11/02 00:38:19;;;;;;;9.57;5.43;;;;;;;7.22;100.00;96879.94;5003077;28;20116;-76
2022/11/02 00:40:45;;;;;;;7.97;4.07;;;;;;;7.15;100.00;96878.75;5018946;28;20527;-76
2022/11/02 00:43:11;;;;;;;9.60;4.87;;;;;;;7.16;100.00;96892.66;5002913;28;20045;-76
2022/11/02 00:45:37;;;;;;;8.23;4.67;;;;;;;7.16;100.00;96890.06;5001269;28;20076;-76
2022/11/02 00:48:03;;;;;;;9.83;5.27;;;;;;;7.16;100.00;96890.88;5000466;28;20474;-76
2022/11/02 00:50:30;;;;;;;8.07;4.53;;;;;;;7.15;100.00;96896.25;5003430;28;20060;-76
2022/11/02 00:52:55;;;;;;;8.13;4.87;;;;;;;7.15;100.00;96893.63;5001437;28;20033;-76
2022/11/02 00:55:23;;;;;;;10.63;4.70;;;;;;;7.07;100.00;96889.81;4984159;28;20156;-76
2022/11/02 00:57:50;;;;;;;10.37;5.17;;;;;;;7.06;100.00;96895.16;4993333;28;20044;-76
2022/11/02 01:00:16;;;;;;;9.37;5.03;;;;;;;6.96;100.00;96894.25;4994304;28;20588;-76
2022/11/02 01:02:42;;;;;;;11.50;6.90;;;;;;;6.95;100.00;96896.03;4977841;28;20067;-76
2022/11/02 01:05:09;;;;;;;12.70;8.67;;;;;;;6.94;100.00;96896.13;5000925;28;20621;-76
2022/11/02 01:07:36;;;;;;;17.37;9.77;;;;;;;6.87;100.00;96894.94;5001060;28;20028;-79
2022/11/02 01:10:05;;;;;;;12.40;7.63;;;;;;;6.71;100.00;96896.16;5030161;28;20033;-76
2022/11/02 01:12:31;;;;;;;10.57;6.80;;;;;;;6.68;100.00;96895.56;5014878;28;20128;-76
2022/11/02 01:14:57;;;;;;;9.97;5.97;;;;;;;6.63;100.00;96893.28;5014839;28;20179;-76
2022/11/02 01:17:22;;;;;;;10.73;5.10;;;;;;;6.56;100.00;96897.34;5012521;28;20120;-76
2022/11/02 01:19:50;;;;;;;9.60;4.50;;;;;;;6.57;100.00;96894.63;5014552;28;20037;-75
2022/11/02 01:22:16;;;;;;;11.07;4.50;;;;;;;6.52;100.00;96899.34;5017224;28;20034;-76
2022/11/02 01:24:42;;;;;;;12.07;4.30;;;;;;;6.41;100.00;96891.50;5015855;28;20368;-76
2022/11/02 01:27:08;;;;;;;10.50;4.47;;;;;;;6.46;100.00;96896.38;5004970;28;20029;-76
2022/11/02 01:29:34;;;;;;;11.57;4.53;;;;;;;6.40;100.00;96902.06;4984442;28;20038;-76
2022/11/02 01:32:00;;;;;;;7.60;3.73;;;;;;;6.34;100.00;96896.38;5000460;28;20037;-76
2022/11/02 01:34:25;;;;;;;10.37;4.17;;;;;;;6.30;100.00;96897.53;5000802;28;20090;-76
2022/11/02 01:36:51;;;;;;;9.60;3.87;;;;;;;6.28;100.00;96902.06;4994728;28;20046;-75
2022/11/02 01:39:17;;;;;;;9.53;3.80;;;;;;;6.35;100.00;96894.59;4998192;28;20021;-76
2022/11/02 01:41:43;;;;;;;8.03;3.70;;;;;;;6.37;100.00;96897.91;4999157;28;20031;-76
2022/11/02 01:44:25;;;;;;;10.77;5.27;;;;;;;6.30;100.00;96892.31;5013242;28;20030;-76
2022/11/02 01:46:54;;;;;;;8.77;4.00;;;;;;;6.32;100.00;96890.44;5002768;28;20083;-76
2022/11/02 01:49:21;;;;;;;8.90;4.73;;;;;;;6.26;100.00;96896.09;5001611;28;20434;-76
2022/11/02 01:52:04;;;;;;;9.07;4.33;;;;;;;6.33;100.00;96896.47;5000720;28;20508;-76
2022/11/02 01:54:36;;;;;;;10.23;4.43;;;;;;;6.28;100.00;96889.00;5000817;28;20693;-76
2022/11/02 01:57:05;;;;;;;8.87;4.57;;;;;;;6.22;100.00;96889.47;5022690;28;20088;-77
2022/11/02 01:59:40;;;;;;;6.83;4.30;;;;;;;6.18;100.00;96885.41;5013746;28;20413;-76
2022/11/02 02:02:14;;;;;;;8.17;4.27;;;;;;;6.16;100.00;96887.31;5014269;28;20159;-76
2022/11/02 02:04:41;;;;;;;8.33;4.40;;;;;;;6.02;100.00;96887.53;5011977;28;20109;-76
2022/11/02 02:07:07;;;;;;;9.87;4.77;;;;;;;6.12;100.00;96888.50;4991226;28;20021;-76
2022/11/02 02:09:34;;;;;;;12.50;4.53;;;;;;;6.13;100.00;96897.97;4962274;28;20083;-76
2022/11/02 02:11:59;;;;;;;9.33;4.00;;;;;;;6.13;100.00;96888.34;4967887;28;20081;-76
2022/11/02 02:14:25;;;;;;;9.20;4.50;;;;;;;6.11;100.00;96886.84;4969451;28;20045;-76
2022/11/02 02:17:17;;;;;;;9.17;4.87;;;;;;;6.15;100.00;96888.25;4970190;28;20037;-75
2022/11/02 02:19:59;;;;;;;10.00;5.13;;;;;;;6.26;100.00;96884.84;4981141;28;20387;-75
2022/11/02 02:22:43;;;;;;;8.23;4.43;;;;;;;6.36;100.00;96886.63;4981435;28;20045;-76
2022/11/02 02:25:31;;;;;;;8.63;4.07;;;;;;;6.52;100.00;96888.06;4964730;28;20087;-76
2022/11/02 02:28:26;;;;;;;14.60;4.40;;;;;;;6.70;100.00;96894.47;4968176;28;21344;-76
2022/11/02 02:30:59;;;;;;;9.57;4.73;;;;;;;6.75;100.00;96876.66;4975435;28;20041;-75
2022/11/02 02:33:37;;;;;;;8.90;4.50;;;;;;;6.88;100.00;96878.34;4973550;28;20537;-75
2022/11/02 02:36:14;;;;;;;10.83;4.40;;;;;;;6.91;100.00;96871.06;4998555;28;20042;-76
2022/11/02 02:38:56;;;;;;;10.07;4.90;;;;;;;6.95;100.00;96869.06;5012526;28;20029;-76
2022/11/02 02:41:54;;;;;;;9.83;4.60;;;;;;;6.97;100.00;96873.19;5038435;28;20047;-76
2022/11/02 02:44:24;;;;;;;11.53;4.00;;;;;;;6.99;100.00;96870.47;5028566;28;20030;-76
2022/11/02 02:47:17;;;;;;;12.33;3.73;;;;;;;7.06;100.00;96871.63;5010237;28;20029;-76
2022/11/02 02:49:49;;;;;;;13.20;3.57;;;;;;;7.15;100.00;96865.69;5014503;28;20431;-76
2022/11/02 02:52:18;;;;;;;12.65;4.40;;;;;;;7.25;100.00;96869.22;5021051;28;20034;-76
2022/11/02 02:54:46;;;;;;;10.20;3.10;;;;;;;7.35;100.00;96866.69;5015122;28;20033;-77
2022/11/02 02:57:21;;;;;;;7.97;3.10;;;;;;;7.36;100.00;96862.28;5021954;28;21305;-76
2022/11/02 02:59:48;;;;;;;7.20;2.80;;;;;;;7.41;100.00;96855.75;5019911;28;20068;-75
2022/11/02 03:02:22;;;;;;;11.83;3.13;;;;;;;7.44;100.00;96847.63;5019728;28;20028;-76
2022/11/02 03:04:47;;;;;;;7.18;3.17;;;;;;;7.48;100.00;96837.75;5038405;28;20029;-76
2022/11/02 03:07:21;;;;;;;9.20;3.17;;;;;;;7.41;100.00;96828.72;5022445;28;20042;-75
2022/11/02 03:10:15;;;;;;;6.43;3.57;;;;;;;7.40;100.00;96834.91;4996860;28;20038;-76
2022/11/02 03:13:06;;;;;;;8.48;2.92;;;;;;;7.42;100.00;96835.63;5014189;28;20049;-75
2022/11/02 03:16:07;;;;;;;8.77;2.67;;;;;;;7.39;100.00;96843.72;4997842;28;20044;-75
2022/11/02 03:19:21;;;;;;;7.93;3.03;;;;;;;7.40;100.00;96850.63;5000348;28;20049;-75
2022/11/02 03:21:54;;;;;;;8.18;3.03;;;;;;;7.36;100.00;96838.75;4978862;28;20065;-76
2022/11/02 03:24:32;;;;;;;6.33;2.90;;;;;;;7.39;100.00;96843.72;4997522;28;20172;-75
2022/11/02 03:27:23;;;;;;;9.07;3.53;;;;;;;7.33;100.00;96840.66;4997719;28;20111;-76
2022/11/02 03:29:55;;;;;;;9.27;3.20;;;;;;;7.30;100.00;96845.28;5008768;28;20034;-76
2022/11/02 03:32:35;;;;;;;8.90;3.00;;;;;;;7.27;100.00;96851.59;5015165;28;20045;-75
2022/11/02 03:35:05;;;;;;;7.23;3.47;;;;;;;7.24;100.00;96858.88;4996726;28;20123;-76
2022/11/02 03:37:39;;;;;;;11.23;3.00;;;;;;;7.17;100.00;96853.28;5005938;28;20041;-76
2022/11/02 03:40:12;;;;;;;8.33;2.97;;;;;;;7.16;100.00;96856.88;5036836;28;20025;-76
2022/11/02 03:42:41;;;;;;;8.30;3.33;;;;;;;7.16;100.00;96856.03;5036392;28;20032;-76
2022/11/02 03:45:19;;;;;;;6.00;2.90;;;;;;;7.11;100.00;96861.66;5020878;28;20087;-76
2022/11/02 03:47:50;;;;;;;7.63;3.20;;;;;;;7.07;100.00;96854.97;5020460;28;20022;-76
2022/11/02 03:50:20;;;;;;;7.87;3.20;;;;;;;7.09;100.00;96858.31;5028094;28;20033;-76
2022/11/02 03:52:49;;;;;;;10.10;3.30;;;;;;;7.07;100.00;96852.38;5035643;28;21397;-76
2022/11/02 03:55:22;;;;;;;8.97;3.93;;;;;;;7.04;100.00;96855.22;5020968;28;20030;-76
2022/11/02 03:57:50;;;;;;;8.13;3.03;;;;;;;7.02;100.00;96857.97;5018124;28;20081;-76
2022/11/02 04:00:23;;;;;;;8.50;3.50;;;;;;;7.06;100.00;96858.56;5023185;28;20395;-76
2022/11/02 04:03:05;;;;;;;8.87;3.00;;;;;;;7.00;100.00;96861.66;5035210;28;20021;-76
2022/11/02 04:05:35;;;;;;;8.80;3.93;;;;;;;7.02;100.00;96868.44;5005949;28;20040;-76
2022/11/02 04:08:21;;;;;;;7.70;3.50;;;;;;;7.03;100.00;96869.25;4992659;28;20041;-75
2022/11/02 04:16:23;;;;;;;7.87;3.10;;;;;;;6.79;100.00;96867.63;4999090;28;20037;-76
2022/11/02 04:21:33;;;;;;;7.23;3.77;;;;;;;6.84;100.00;96880.31;4993555;28;20045;-75
2022/11/02 04:26:46;;;;;;;6.50;2.83;;;;;;;6.82;100.00;96877.84;4992335;28;20121;-76
2022/11/02 04:29:13;;;;;;;8.80;3.40;;;;;;;6.84;100.00;96883.81;4991986;28;20036;-75
2022/11/02 04:31:39;;;;;;;8.20;2.90;;;;;;;6.93;100.00;96878.78;4976218;28;20706;-75
2022/11/02 04:34:06;;;;;;;10.20;4.10;;;;;;;7.00;100.00;96890.41;4992118;28;20033;-76
2022/11/02 04:36:31;;;;;;;8.57;2.80;;;;;;;6.99;100.00;96875.69;5012206;28;20394;-76
2022/11/02 04:38:57;;;;;;;8.93;2.73;;;;;;;7.09;100.00;96871.41;5016095;28;20037;-75
2022/11/02 04:41:41;;;;;;;9.93;3.10;;;;;;;7.12;100.00;96873.78;5019785;28;20040;-76
2022/11/02 04:44:27;;;;;;;7.50;2.60;;;;;;;7.14;100.00;96884.91;5028576;28;20557;-76
2022/11/02 04:46:58;;;;;;;7.63;2.73;;;;;;;7.20;100.00;96884.44;5022343;28;20033;-76
2022/11/02 04:49:27;;;;;;;10.23;3.90;;;;;;;7.24;100.00;96882.41;5031603;28;20033;-76
2022/11/02 04:51:53;;;;;;;12.90;6.60;;;;;;;7.15;100.00;96885.78;5001468;28;20028;-76
2022/11/02 04:54:19;;;;;;;11.47;6.87;;;;;;;7.11;100.00;96900.88;5018481;28;20030;-76
2022/11/02 04:56:49;;;;;;;10.70;4.47;;;;;;;6.97;100.00;96891.50;5026192;28;20022;-76
2022/11/02 04:59:17;;;;;;;9.67;4.50;;;;;;;6.80;100.00;96889.38;5015173;28;20026;-76
2022/11/02 05:01:43;;;;;;;8.83;4.30;;;;;;;6.72;100.00;96891.75;5033288;28;20025;-76
2022/11/02 05:04:09;;;;;;;10.10;3.93;;;;;;;6.70;100.00;96893.66;5018053;28;20119;-76
2022/11/02 05:06:36;;;;;;;8.50;3.87;;;;;;;6.70;100.00;96896.25;4979512;28;21782;-76
2022/11/02 05:09:02;;;;;;;9.80;2.83;;;;;;;6.75;100.00;96897.59;4955965;28;20139;-75
2022/11/02 05:11:29;;;;;;;9.83;3.70;;;;;;;6.76;100.00;96893.19;4938251;28;20707;-75
2022/11/02 05:13:56;;;;;;;8.90;4.50;;;;;;;6.83;100.00;96889.97;4955640;28;20022;-76
2022/11/02 05:16:22;;;;;;;13.50;4.60;;;;;;;6.95;100.00;96889.97;4955051;28;20056;-75
2022/11/02 05:18:50;;;;;;;9.17;4.00;;;;;;;6.97;100.00;96881.03;4955834;28;20030;-75
2022/11/02 05:21:18;;;;;;;7.70;3.60;;;;;;;7.02;100.00;96891.16;4954807;28;20063;-76
2022/11/02 05:23:44;;;;;;;8.77;3.17;;;;;;;7.02;100.00;96888.53;4953086;28;20048;-76
2022/11/02 05:26:11;;;;;;;10.47;3.40;;;;;;;7.02;100.00;96899.81;4952537;28;21403;-76
2022/11/02 05:28:40;;;;;;;10.13;2.67;;;;;;;7.04;100.00;96897.06;4937534;28;20552;-76
2022/11/02 05:31:05;;;;;;;9.03;2.87;;;;;;;7.06;100.00;96895.16;4951776;28;20041;-76
2022/11/02 05:33:33;;;;;;;9.10;2.97;;;;;;;7.11;100.00;96890.44;4953305;28;20040;-75
2022/11/02 05:36:05;;;;;;;11.50;3.73;;;;;;;7.14;100.00;96890.16;4979656;28;20473;-76
2022/11/02 05:38:33;;;;;;;13.30;5.37;;;;;;;7.13;100.00;96895.53;5010974;28;20079;-76
2022/11/02 05:41:00;;;;;;;21.30;9.70;;;;;;;7.12;100.00;96899.09;5010614;28;20100;-76
2022/11/02 05:43:30;;;;;;;26.60;11.23;;;;;;;7.13;100.00;96891.13;5011521;28;20029;-76
2022/11/02 05:46:01;;;;;;;14.27;5.50;;;;;;;7.17;100.00;96889.91;5008648;28;20461;-76
2022/11/02 05:48:29;;;;;;;11.97;4.33;;;;;;;7.14;100.00;96892.78;4998680;28;21770;-76
2022/11/02 05:50:57;;;;;;;10.93;4.17;;;;;;;7.13;100.00;96891.13;5011060;28;20036;-75
2022/11/02 05:53:24;;;;;;;15.53;5.13;;;;;;;7.06;100.00;96897.78;4997763;28;20030;-76
2022/11/02 05:55:49;;;;;;;10.83;4.80;;;;;;;7.10;100.00;96907.06;5010665;28;20572;-76
2022/11/02 05:58:15;;;;;;;13.17;4.47;;;;;;;7.16;100.00;96905.75;5008873;28;20034;-77
2022/11/02 06:00:41;;;;;;;11.00;3.70;;;;;;;7.16;100.00;96906.56;5011690;28;20068;-75
2022/11/02 06:03:07;;;;;;;8.77;2.87;;;;;;;7.16;100.00;96903.94;5012249;28;20775;-77
2022/11/02 06:05:33;;;;;;;6.23;2.37;;;;;;;7.27;100.00;96903.91;5006929;28;21424;-77
2022/11/02 06:08:00;;;;;;;7.30;2.20;;;;;;;7.27;100.00;96914.38;4989248;28;20061;-77
2022/11/02 06:10:26;;;;;;;7.37;2.40;;;;;;;7.26;100.00;96910.13;4988070;28;20075;-76
2022/11/02 06:13:01;;;;;;;5.93;2.20;;;;;;;7.31;100.00;96905.38;4968942;28;20049;-75
2022/11/02 06:15:30;;;;;;;7.17;2.07;;;;;;;7.25;100.00;96912.88;4986202;28;20038;-76
2022/11/02 06:17:56;;;;;;;12.07;2.23;;;;;;;7.28;100.00;96916.06;4983836;28;20124;-75
2022/11/02 06:20:22;;;;;;;10.27;1.90;;;;;;;7.33;100.00;96913.06;4989470;28;20448;-76
2022/11/02 06:22:48;;;;;;;11.43;1.90;;;;;;;7.33;100.00;96913.91;5001682;28;20095;-76
2022/11/02 06:25:15;;;;;;;8.83;2.10;;;;;;;7.40;100.00;96913.41;4991780;28;20029;-75
2022/11/02 06:27:48;;;;;;;9.57;2.20;;;;;;;7.43;100.00;96911.38;4975953;28;20119;-75
2022/11/02 06:30:14;;;;;;;;;;;;;;;7.59;100.00;96910.16;4988808;28;20164;-76
2022/11/02 06:32:48;;;;;;;6.57;1.67;;;;;;;7.69;100.00;96908.47;5003556;28;19917;-75
2022/11/02 06:35:16;;;;;;;6.40;1.30;;;;;;;7.78;100.00;96908.53;5056664;28;20559;-75
2022/11/02 06:37:43;;;;;;;8.93;1.43;;;;;;;7.89;100.00;96918.13;5037228;28;20036;-76
2022/11/02 06:40:10;;;;;;;9.80;2.00;;;;;;;8.00;100.00;96915.47;5014903;28;20038;-75
2022/11/02 06:42:36;;;;;;;7.67;1.83;;;;;;;8.06;100.00;96914.13;5027904;28;20029;-76
2022/11/02 06:45:02;;;;;;;7.77;1.80;;;;;;;8.26;100.00;96917.72;5029779;28;20467;-75
2022/11/02 06:47:33;;;;;;;5.00;1.67;;;;;;;8.42;100.00;96917.31;5012186;28;20029;-75
2022/11/02 06:50:02;;;;;;;8.00;1.83;;;;;;;8.58;100.00;96922.88;5033855;28;20033;-76
2022/11/02 06:52:29;;;;;;;7.50;2.10;;;;;;;8.69;100.00;96925.44;5031623;28;20534;-76
2022/11/02 06:54:55;;;;;;;9.13;2.10;;;;;;;8.74;100.00;96930.28;5031968;28;20060;-76
2022/11/02 06:57:22;;;;;;;7.23;1.40;;;;;;;8.73;100.00;96932.09;5027860;28;20064;-77
2022/11/02 06:59:48;;;;;;;5.47;1.83;;;;;;;8.73;100.00;96939.94;5014801;28;20040;-76
2022/11/02 07:02:14;;;;;;;7.13;1.50;;;;;;;8.80;100.00;96955.16;5033576;28;20091;-76
2022/11/02 07:04:40;;;;;;;7.13;1.77;;;;;;;8.80;100.00;96956.00;5034256;28;20033;-77
2022/11/02 07:07:05;;;;;;;5.93;1.87;;;;;;;8.80;100.00;96958.63;5021639;28;20120;-77
2022/11/02 07:09:31;;;;;;;9.33;1.67;;;;;;;8.86;100.00;96954.66;5032165;28;20487;-77
2022/11/02 07:11:57;;;;;;;9.33;2.47;;;;;;;8.84;100.00;96953.94;5030168;28;20029;-77
2022/11/02 07:14:23;;;;;;;7.30;2.00;;;;;;;8.93;100.00;96959.25;5011395;28;20033;-78
2022/11/02 07:16:50;;;;;;;9.07;2.43;;;;;;;9.01;100.00;96971.69;5025539;28;20470;-77
2022/11/02 07:19:15;;;;;;;8.67;2.37;;;;;;;9.16;100.00;96969.56;5024788;28;20079;-77
2022/11/02 07:21:41;;;;;;;9.00;2.30;;;;;;;9.26;100.00;96975.66;5030676;28;20022;-77
2022/11/02 07:24:07;;;;;;;10.47;1.70;;;;;;;9.48;100.00;96979.88;5033390;28;20033;-77
2022/11/02 07:26:33;;;;;;;7.57;1.73;;;;;;;9.48;100.00;96972.00;5028411;28;20037;-76
2022/11/02 07:28:58;;;;;;;8.13;1.97;;;;;;;9.67;100.00;96972.03;5022412;28;20811;-77
2022/11/02 07:31:24;;;;;;;10.37;2.13;;;;;;;9.63;100.00;96986.41;5031352;28;20564;-77
2022/11/02 07:33:50;;;;;;;5.77;1.93;;;;;;;9.73;100.00;96988.25;5036701;28;20029;-77
2022/11/02 07:36:15;;;;;;;11.53;1.80;;;;;;;9.77;100.00;96989.63;5032537;28;20045;-77
2022/11/02 07:38:41;;;;;;;5.00;1.70;;;;;;;9.89;100.00;96996.41;5017069;28;20112;-77
2022/11/02 07:41:07;;;;;;;10.47;2.40;;;;;;;10.05;100.00;96991.44;5034340;28;20041;-78
2022/11/02 07:43:34;;;;;;;9.10;2.80;;;;;;;10.22;100.00;96989.94;5016022;28;20049;-77
2022/11/02 07:46:23;;;;;;;7.00;1.83;;;;;;;10.34;100.00;96986.22;5033004;28;20030;-77
2022/11/02 07:48:48;;;;;;;7.23;1.80;;;;;;;10.24;100.00;96992.44;5027370;28;20044;-77
2022/11/02 07:51:14;;;;;;;8.97;1.73;;;;;;;10.32;100.00;96989.97;5032622;28;20037;-76
2022/11/02 07:53:40;;;;;;;11.07;2.73;;;;;;;10.50;100.00;97003.25;5030879;28;20022;-77
2022/11/02 07:56:06;;;;;;;7.50;1.97;;;;;;;10.45;100.00;97001.03;5029294;28;20422;-77
2022/11/02 07:58:32;;;;;;;8.53;2.53;;;;;;;10.43;100.00;97002.97;5030513;28;20059;-77
2022/11/02 08:00:59;;;;;;;6.03;1.70;;;;;;;10.50;100.00;97000.63;5025845;28;20464;-77
2022/11/02 08:03:26;;;;;;;7.23;2.30;;;;;;;10.48;100.00;96998.13;5011100;28;20033;-77
2022/11/02 08:05:52;;;;;;;7.87;1.70;;;;;;;10.45;100.00;97001.03;5023818;28;20034;-77
2022/11/02 08:08:20;;;;;;;4.17;1.67;;;;;;;10.70;100.00;96998.81;5027791;28;20025;-78
2022/11/02 08:10:48;;;;;;;5.57;1.60;;;;;;;10.80;100.00;96994.34;5031411;28;20038;-78
2022/11/02 08:13:17;;;;;;;5.70;1.70;;;;;;;11.13;100.00;96995.63;5014387;28;20033;-77
2022/11/02 08:15:43;;;;;;;13.10;2.57;;;;;;;11.25;100.00;97001.53;5036131;28;20037;-77
2022/11/02 08:18:15;;;;;;;10.23;2.40;;;;;;;10.89;100.00;96998.75;5032209;28;20036;-77
2022/11/02 08:20:42;;;;;;;7.40;1.93;;;;;;;10.92;100.00;97010.78;5023965;28;20025;-76
2022/11/02 08:23:09;;;;;;;4.70;1.50;;;;;;;10.78;100.00;97004.19;5008966;28;20458;-75
2022/11/02 08:25:36;;;;;;;8.73;2.00;;;;;;;10.70;100.00;97011.97;5021864;28;20044;-76
2022/11/02 08:28:02;;;;;;;7.80;1.80;;;;;;;10.68;100.00;97011.25;5018419;28;20037;-76
2022/11/02 08:30:30;;;;;;;9.47;1.73;;;;;;;10.61;100.00;97019.69;5035015;28;20086;-76
2022/11/02 08:33:02;;;;;;;7.67;1.70;;;;;;;10.53;100.00;97022.22;5028055;28;20084;-77
2022/11/02 08:35:28;;;;;;;9.57;2.55;;;;;;;10.44;100.00;97025.66;5021766;28;20112;-77
2022/11/02 08:37:54;;;;;;;6.90;1.50;;;;;;;10.31;100.00;97025.13;5008436;28;20071;-77
2022/11/02 08:40:20;;;;;;;8.23;2.47;;;;;;;10.27;100.00;97029.00;5019241;28;20044;-77
2022/11/02 08:42:47;;;;;;;7.20;1.87;;;;;;;10.30;100.00;97028.72;5022917;28;20034;-77
2022/11/02 08:45:13;;;;;;;7.83;2.80;;;;;;;10.35;100.00;97031.75;5028309;28;20029;-77
2022/11/02 08:47:42;;;;;;;10.17;2.53;;;;;;;10.40;100.00;97028.72;5010710;28;20624;-76
2022/11/02 08:50:10;;;;;;;7.37;2.00;;;;;;;10.40;100.00;97026.94;5022829;28;20398;-76
2022/11/02 08:52:37;;;;;;;5.50;1.90;;;;;;;10.47;100.00;97038.53;5025545;28;20036;-75
2022/11/02 08:55:03;;;;;;;7.73;1.70;;;;;;;10.50;100.00;97040.06;5026630;28;20033;-76
2022/11/02 08:57:29;;;;;;;9.80;2.03;;;;;;;10.59;100.00;97040.03;5026697;28;20494;-75
2022/11/02 08:59:55;;;;;;;6.27;1.70;;;;;;;10.71;100.00;97047.81;5029372;28;20025;-76
2022/11/02 09:02:20;;;;;;;11.17;2.03;;;;;;;10.65;100.00;97053.63;5009726;28;20025;-76
2022/11/02 09:04:46;;;;;;;8.00;1.57;;;;;;;10.73;100.00;97046.69;5026091;28;20120;-76
2022/11/02 09:07:12;;;;;;;7.50;1.90;;;;;;;10.93;100.00;97047.50;5026345;28;20029;-76
2022/11/02 09:09:38;;;;;;;8.17;2.63;;;;;;;11.10;100.00;97045.94;5026934;28;20461;-76
2022/11/02 09:12:03;;;;;;;9.67;3.43;;;;;;;11.25;100.00;97039.22;5025889;28;20064;-76
2022/11/02 09:14:29;;;;;;;6.83;1.67;;;;;;;11.32;100.00;97042.13;5027018;28;20478;-75
2022/11/02 09:16:55;;;;;;;7.90;1.93;;;;;;;11.44;100.00;97040.16;5022879;28;20040;-75
2022/11/02 09:19:20;;;;;;;6.37;1.70;;;;;;;11.52;100.00;97043.69;5024833;28;20037;-75
2022/11/02 09:21:48;;;;;;;10.63;2.67;;;;;;;11.85;100.00;97033.59;5004900;28;20038;-75
2022/11/02 09:24:14;;;;;;;9.07;2.10;;;;;;;11.73;100.00;97042.63;5019823;28;20101;-76
2022/11/02 09:26:40;;;;;;;6.73;1.93;;;;;;;12.09;100.00;97029.56;5022875;28;20498;-76
2022/11/02 09:29:05;;;;;;;7.40;1.47;;;;;;;12.25;100.00;97024.47;5039035;28;20040;-76
2022/11/02 09:31:31;;;;;;;8.57;1.60;;;;;;;12.39;100.00;97025.75;5011632;28;20028;-76
2022/11/02 09:33:57;;;;;;;8.17;2.47;;;;;;;12.39;100.00;97031.84;5015061;28;20813;-76
2022/11/02 09:36:22;;;;;;;7.27;1.20;;;;;;;12.58;100.00;97030.03;5023597;28;20037;-77
2022/11/02 09:38:48;;;;;;;6.60;1.83;;;;;;;12.53;100.00;97038.38;5024330;28;20029;-75
2022/11/02 09:41:51;;;;;;;7.03;1.80;;;;;;;12.72;100.00;97027.69;5031384;28;20034;-76
2022/11/02 09:44:19;;;;;;;8.20;1.87;;;;;;;12.94;100.00;97022.88;5026225;28;20037;-76
2022/11/02 09:46:45;;;;;;;8.37;2.07;;;;;;;13.23;100.00;97019.94;5035026;28;20111;-76
2022/11/02 09:49:17;;;;;;;6.43;1.77;;;;;;;13.26;100.00;97024.94;5024751;28;20702;-76
2022/11/02 09:51:50;;;;;;;10.83;1.73;;;;;;;13.46;100.00;97025.53;5025319;28;20033;-76
2022/11/02 09:54:19;;;;;;;8.88;2.03;;;;;;;13.16;100.00;97034.75;5033234;28;20114;-76
2022/11/02 09:56:46;;;;;;;8.43;1.97;;;;;;;13.24;100.00;97039.25;5019065;28;20040;-75
2022/11/02 09:59:19;;;;;;;7.63;1.93;;;;;;;13.25;100.00;97035.66;5025096;28;20033;-76
2022/11/02 10:02:15;;;;;;;6.43;1.70;;;;;;;13.18;100.00;97033.63;5020393;28;20033;-75
2022/11/02 10:04:52;;;;;;;8.37;1.50;;;;;;;13.04;100.00;97026.25;5025386;28;20065;-76
2022/11/02 10:07:56;;;;;;;6.23;1.70;;;;;;;13.14;100.00;97031.41;5022206;28;20450;-76
2022/11/02 10:10:30;;;;;;;8.40;2.13;;;;;;;13.31;100.00;97027.94;5029304;28;20030;-76
2022/11/02 10:12:56;;;;;;;4.00;1.23;;;;;;;13.42;100.00;97027.66;5033280;28;20497;-76
2022/11/02 10:15:37;;;;;;;7.13;1.53;;;;;;;13.48;100.00;97023.56;5035087;28;20124;-76
2022/11/02 10:18:05;;;;;;;8.40;2.23;;;;;;;13.38;100.00;97028.97;5033387;28;20030;-74
2022/11/02 10:21:04;;;;;;;8.40;1.60;;;;;;;13.23;100.00;97025.22;5031142;28;20073;-76
2022/11/02 10:23:49;;;;;;;6.80;1.43;;;;;;;13.07;100.00;97036.50;5023706;28;20068;-76
2022/11/02 10:26:21;;;;;;;3.90;1.27;;;;;;;13.15;100.00;97038.38;5020589;28;20039;-76
2022/11/02 10:29:01;;;;;;;7.33;1.87;;;;;;;13.07;100.00;97035.66;5024566;28;20040;-76
2022/11/02 10:31:33;;;;;;;9.00;1.60;;;;;;;12.96;100.00;97037.56;5033783;28;20056;-76
2022/11/02 10:34:21;;;;;;;9.07;1.50;;;;;;;13.15;100.00;97036.56;5010129;28;20037;-76
2022/11/02 10:37:13;;;;;;;7.00;1.70;;;;;;;12.91;100.00;97041.66;5026032;28;20029;-76
2022/11/02 10:40:10;;;;;;;8.20;1.73;;;;;;;13.24;100.00;97036.59;5017801;28;20479;-77
2022/11/02 10:42:58;;;;;;;10.33;2.17;;;;;;;13.28;100.00;97038.81;5020120;28;20057;-77
2022/11/02 10:45:43;;;;;;;10.00;1.83;;;;;;;13.41;100.00;97038.38;5025983;28;20136;-77
2022/11/02 10:48:33;;;;;;;6.07;1.63;;;;;;;13.37;100.00;97037.03;5016553;28;20042;-76
2022/11/02 10:51:29;;;;;;;11.23;2.10;;;;;;;13.22;100.00;97023.56;5022981;28;20087;-77
2022/11/02 10:53:55;;;;;;;9.90;1.50;;;;;;;13.17;100.00;97031.09;5017879;28;20072;-77
2022/11/02 10:56:32;;;;;;;8.97;1.70;;;;;;;13.05;100.00;97032.38;5008832;28;20037;-76
2022/11/02 10:59:00;;;;;;;6.50;1.40;;;;;;;13.48;100.00;97030.66;5024635;28;20517;-76
2022/11/02 11:01:28;;;;;;;6.53;1.63;;;;;;;13.51;100.00;97022.41;5006368;28;20045;-76
2022/11/02 11:03:56;;;;;;;6.07;1.10;;;;;;;13.62;100.00;97016.84;5027634;28;20109;-77
2022/11/02 11:06:23;;;;;;;8.30;1.90;;;;;;;13.58;100.00;97018.13;5020062;28;20037;-76
2022/11/02 11:08:52;;;;;;;6.00;1.90;;;;;;;13.57;100.00;97025.25;5024519;28;20033;-76
2022/11/02 11:11:24;;;;;;;7.50;1.80;;;;;;;13.64;100.00;97020.97;5043932;28;20033;-76
2022/11/02 11:14:16;;;;;;;6.47;1.40;;;;;;;13.74;100.00;97020.84;5024299;28;20030;-76
2022/11/02 11:16:48;;;;;;;6.40;1.65;;;;;;;13.56;100.00;97009.56;5025406;28;20479;-77
2022/11/02 11:19:54;;;;;;;6.63;1.43;;;;;;;13.64;100.00;97001.66;5028796;28;20498;-78
2022/11/02 11:22:33;;;;;;;7.60;1.60;;;;;;;13.79;100.00;97008.00;5004497;28;20461;-78
2022/11/02 11:25:22;;;;;;;7.32;1.80;;;;;;;14.01;100.00;97011.03;5029092;28;20037;-77
2022/11/02 11:27:50;;;;;;;10.63;2.50;;;;;;;13.98;100.00;97008.69;5029475;28;20079;-76
2022/11/02 11:30:28;;;;;;;4.38;1.55;;;;;;;14.11;100.00;96999.31;5034642;28;20028;-75
2022/11/02 11:32:56;;;;;;;5.22;1.85;;;;;;;14.08;100.00;96998.81;5032682;28;20483;-75
2022/11/02 11:35:27;;;;;;;6.82;2.20;;;;;;;14.07;100.00;97005.09;5020588;28;20061;-75
2022/11/02 11:38:01;;;;;;;6.80;1.65;;;;;;;14.01;100.00;97003.09;5027748;28;20033;-75
2022/11/02 11:40:34;;;;;;;7.13;2.03;;;;;;;14.20;100.00;96997.50;5029060;28;20680;-75
2022/11/02 11:43:02;;;;;;;8.23;2.20;;;;;;;14.45;100.00;97005.47;5028131;28;20057;-75
2022/11/02 11:45:32;;;;;;;10.07;2.75;;;;;;;14.64;100.00;96993.78;5029834;28;20069;-75
2022/11/02 11:48:19;;;;;;;11.52;2.95;;;;;;;14.59;100.00;96999.56;5029332;28;20032;-76
2022/11/02 11:50:46;;;;;;;8.60;1.75;;;;;;;14.48;100.00;96999.84;5023505;28;20025;-76
2022/11/02 11:53:12;;;;;;;9.23;2.90;;;;;;;14.07;100.00;96997.16;5029932;28;20026;-75
2022/11/02 11:55:49;;;;;;;12.98;4.82;;;;;;;14.34;100.00;97002.16;5030606;28;20757;-75
2022/11/02 11:58:24;;;;;;;10.10;3.05;;;;;;;14.50;100.00;96992.59;5035664;28;20043;-75